Detall de PIREP

Printer-friendly versionPDF version

[2011/01/19 21:36:00]
Flight IATA:CT3100
Pilot Number:026
Company ICAO:CAT
Aircraft Type:DC85/A
PAX:136
Departing Airport: LIEA
Destination Airport: LEBL
Alternate Airport:LEPA
Online: VATSIM
Route:GINOX UM601 VERSO
Flight Level:F290
No Slew and time accel
No pause
Crash detect
Detect pilot in Cockpit between each 30 and 45 minutes
21:36 Zero fuel Weight: 179292 Lbs, Fuel Weight: 24001 Lbs
21:36 VATSIM:LIEA 192050Z 24006KT 9999 BKN020 11/07 Q1018
21:36 VATSIM:LEBL 192100Z 32004KT 280V040 9000 FEW025 SCT055 10/09 Q1022 NOSIG
21:36 VOICE CATALONIAN / INTERHUB ROUTE CT3100
21:48 Parking Brakes off
21:55 Take-off
21:55 Take off Weight: 202240 Lbs
21:55 Wind: 230º @ 006 Knots Heading: 203º
21:55 POS N40º 37´ 36´´ E008º 17´ 16´´
21:55 Flaps:3 at 165 Knots
21:55 Gear Up: 166 Knots
21:56 Flaps:2 at 162 Knots
21:56 Flaps:1 at 147 Knots
21:58 Flaps:0 at 163 Knots
22:10Wind:276º@013 Knots Heading: 272º Ground Speed: 395 Knots Altitude 26033 ft
22:12 TOC
22:12 Fuel Weight: 17768 Lb
22:21 TOD
22:21 Fuel Weight: 15952 Lb
22:25 Wind:340º@020 Knots Heading: 280º Ground Speed: 403 Knots Altitude 23572 ft
22:40 Wind:335º@006 Knots Heading: 277º Ground Speed: 285 Knots Altitude 6391 ft
22:47 Flaps:1 at 196 Knots
22:50 Gear Down: 172 Knots
22:51 Flaps:2 at 171 Knots
22:52 Flaps:3 at 158 Knots
22:52 Flaps:4 at 142 Knots
22:53 Flaps:5 at 134 Knots
22:53 TouchDown:Rate -327 ft/min Speed: 127 Knots
22:54 VATSIM:LEBL 192230Z 30002KT 8000 FEW014 09/08 Q1022 NOSIG
22:54 Land
22:54 Wind:350º@004 Knots
22:54 Heading: 246º
22:54 Flight Duration: 00:59
22:54 Landing Weight: 191771 Lbs
22:54 POS N41º 18´ 02´´ E002º 05´ 19´´
23:01 Parking brakes on
23:01 Block to Block Duration: 01:13
23:01 Final Fuel: 11887 Lbls
23:01 Spent Fuel: 12114 Lbls
23:01 Flight Length: 310 NM
23:01 TOD Land Length: 158 NM

Exportar CSV

Powered by Drupal - Modified by Danger4k